Time,TemperatureF,DewpointF,PressureIn,WindDirection,WindDirectionDegrees,WindSpeedMPH,WindSpeedGustMPH,Humidity,HourlyPrecipIn,Conditions,Clouds,dailyrainin,SoftwareType,DateUTC
2013-01-12 00:02:00,-999.0,-99.9,30.12,ENE,66,11.0,14.0,-999,-99.99,,,-99.99,,2013-01-12 09:02:00,
2013-01-12 00:12:00,-999.0,-99.9,30.11,ENE,69,12.0,16.0,-999,-99.99,,,-99.99,,2013-01-12 09:12:00,
2013-01-12 00:22:00,-999.0,-99.9,30.11,ENE,62,12.0,15.0,-999,-99.99,,,-99.99,,2013-01-12 09:22:00,
2013-01-12 00:33:00,-999.0,-99.9,30.10,ENE,67,12.0,15.0,-999,-99.99,,,-99.99,,2013-01-12 09:33:00,
2013-01-12 00:43:00,-999.0,-99.9,30.11,ENE,62,11.0,14.0,-999,-99.99,,,-99.99,,2013-01-12 09:43:00,
2013-01-12 00:53:00,28.0,-99.9,30.11,ENE,61,10.0,13.0,-999,-99.99,,,-99.99,,2013-01-12 09:53:00,
2013-01-12 01:02:00,-999.0,-99.9,30.12,ENE,59,11.0,13.0,-999,-99.99,,,-99.99,,2013-01-12 10:02:00,
2013-01-12 01:12:00,-999.0,-99.9,30.12,ENE,60,10.0,12.0,-999,-99.99,,,-99.99,,2013-01-12 10:12:00,
2013-01-12 01:22:00,28.0,-99.9,30.12,ENE,63,9.0,13.0,-999,-99.99,,,-99.99,,2013-01-12 10:22:00,
2013-01-12 01:32:00,-999.0,-99.9,30.11,ENE,61,11.0,13.0,-999,-99.99,,,-99.99,,2013-01-12 10:32:00,
2013-01-12 01:43:00,28.0,-99.9,30.12,NE,54,9.0,13.0,-999,-99.99,,,-99.99,,2013-01-12 10:43:00,
2013-01-12 01:52:00,-999.0,-99.9,30.10,NE,53,8.0,11.0,-999,-99.99,,,-99.99,,2013-01-12 10:52:00,
2013-01-12 02:02:00,-999.0,-99.9,30.12,NE,35,4.0,9.0,-999,-99.99,,,-99.99,,2013-01-12 11:02:00,
2013-01-12 02:12:00,-999.0,-99.9,30.11,NE,54,9.0,12.0,-999,-99.99,,,-99.99,,2013-01-12 11:12:00,
2013-01-12 02:23:00,28.0,-99.9,30.10,ENE,57,10.0,13.0,-999,-99.99,,,-99.99,,2013-01-12 11:23:00,
2013-01-12 02:33:00,-999.0,-99.9,30.12,ENE,58,9.0,13.0,-999,-99.99,,,-99.99,,2013-01-12 11:33:00,
2013-01-12 02:43:00,-999.0,-99.9,30.11,ENE,61,10.0,14.0,-999,-99.99,,,-99.99,,2013-01-12 11:43:00,
2013-01-12 02:53:00,28.0,-99.9,30.11,ENE,65,9.0,15.0,-999,-99.99,,,-99.99,,2013-01-12 11:53:00,
2013-01-12 03:03:00,-999.0,-99.9,30.11,ENE,69,13.0,15.0,-999,-99.99,,,-99.99,,2013-01-12 12:03:00,
2013-01-12 03:12:00,28.0,-99.9,30.11,ENE,68,10.0,15.0,-999,-99.99,,,-99.99,,2013-01-12 12:12:00,
2013-01-12 03:22:00,-999.0,-99.9,30.12,ENE,65,11.0,14.0,-999,-99.99,,,-99.99,,2013-01-12 12:22:00,
2013-01-12 03:33:00,-999.0,-99.9,30.11,ENE,73,10.0,13.0,-999,-99.99,,,-99.99,,2013-01-12 12:33:00,
2013-01-12 03:43:00,-999.0,-99.9,30.11,NE,38,6.0,9.0,-999,-99.99,,,-99.99,,2013-01-12 12:43:00,
2013-01-12 03:53:00,29.0,-99.9,30.10,NE,45,4.0,7.0,-999,-99.99,,,-99.99,,2013-01-12 12:53:00,
2013-01-12 04:03:00,-999.0,-99.9,30.10,NE,53,8.0,11.0,-999,-99.99,,,-99.99,,2013-01-12 13:03:00,
2013-01-12 04:12:00,-999.0,-99.9,30.09,NE,46,8.0,11.0,-999,-99.99,,,-99.99,,2013-01-12 13:12:00,
2013-01-12 04:23:00,29.0,-99.9,30.09,ENE,66,9.0,12.0,-999,-99.99,,,-99.99,,2013-01-12 13:23:00,
2013-01-12 04:33:00,-999.0,-99.9,30.09,ENE,75,10.0,13.0,-999,-99.99,,,-99.99,,2013-01-12 13:33:00,
2013-01-12 04:43:00,29.0,-99.9,30.09,ENE,66,9.0,11.0,-999,-99.99,,,-99.99,,2013-01-12 13:43:00,
2013-01-12 04:53:00,-999.0,-99.9,30.07,ENE,61,11.0,14.0,-999,-99.99,,,-99.99,,2013-01-12 13:53:00,
2013-01-12 05:02:00,-999.0,-99.9,30.07,ENE,62,13.0,16.0,-999,-99.99,,,-99.99,,2013-01-12 14:02:00,
2013-01-12 05:12:00,-999.0,-99.9,30.08,ENE,61,9.0,12.0,-999,-99.99,,,-99.99,,2013-01-12 14:12:00,
2013-01-12 05:22:00,-999.0,-99.9,30.08,ENE,61,9.0,12.0,-999,-99.99,,,-99.99,,2013-01-12 14:22:00,
2013-01-12 05:33:00,-999.0,-99.9,30.07,NE,43,6.0,9.0,-999,-99.99,,,-99.99,,2013-01-12 14:33:00,
2013-01-12 05:43:00,-999.0,-99.9,30.06,NE,36,7.0,11.0,-999,-99.99,,,-99.99,,2013-01-12 14:43:00,
2013-01-12 05:53:00,29.0,-99.9,30.05,NNE,33,6.0,11.0,-999,-99.99,,,-99.99,,2013-01-12 14:53:00,
2013-01-12 06:03:00,-999.0,-99.9,30.05,NE,50,6.0,9.0,-999,-99.99,,,-99.99,,2013-01-12 15:03:00,
2013-01-12 06:13:00,29.0,-99.9,30.05,NNE,30,7.0,13.0,-999,-99.99,,,-99.99,,2013-01-12 15:13:00,
2013-01-12 06:23:00,-999.0,-99.9,30.04,NNE,19,7.0,14.0,-999,-99.99,,,-99.99,,2013-01-12 15:23:00,
2013-01-12 06:34:00,-999.0,-99.9,30.04,NNE,19,7.0,14.0,-999,-99.99,,,-99.99,,2013-01-12 15:34:00,
2013-01-12 06:43:00,29.0,-99.9,30.04,NE,35,6.0,9.0,-999,-99.99,,,-99.99,,2013-01-12 15:43:00,
2013-01-12 06:53:00,29.0,-99.9,30.03,North,10,8.0,11.0,-999,-99.99,,,-99.99,,2013-01-12 15:53:00,
2013-01-12 07:03:00,29.0,-99.9,30.03,North,10,8.0,11.0,-999,-99.99,,,-99.99,,2013-01-12 16:03:00,
2013-01-12 07:13:00,29.0,-99.9,30.03,North,10,8.0,11.0,-999,-99.99,,,-99.99,,2013-01-12 16:13:00,
2013-01-12 07:23:00,29.0,-99.9,30.03,North,10,8.0,11.0,-999,-99.99,,,-99.99,,2013-01-12 16:23:00,
2013-01-12 07:33:00,-999.0,-99.9,30.02,NNE,14,9.0,13.0,-999,-99.99,,,-99.99,,2013-01-12 16:33:00,
2013-01-12 07:43:00,30.0,-99.9,30.01,NNE,13,11.0,14.0,-999,-99.99,,,-99.99,,2013-01-12 16:43:00,
2013-01-12 07:53:00,-999.0,-99.9,30.01,NNE,17,9.0,11.0,-999,-99.99,,,-99.99,,2013-01-12 16:53:00,
2013-01-12 08:03:00,-999.0,-99.9,30.01,NNE,17,9.0,11.0,-999,-99.99,,,-99.99,,2013-01-12 17:03:00,
2013-01-12 08:13:00,-999.0,-99.9,30.01,NNE,17,9.0,11.0,-999,-99.99,,,-99.99,,2013-01-12 17:13:00,
2013-01-12 08:23:00,-999.0,-99.9,30.01,NNE,17,9.0,11.0,-999,-99.99,,,-99.99,,2013-01-12 17:23:00,
2013-01-12 09:33:00,-999.0,-99.9,29.99,NE,54,15.0,21.0,-999,-99.99,,,-99.99,,2013-01-12 18:33:00,
2013-01-12 09:43:00,-999.0,-99.9,30.00,ENE,61,15.0,19.0,-999,-99.99,,,-99.99,,2013-01-12 18:43:00,
2013-01-12 09:53:00,31.0,-99.9,29.99,ENE,64,16.0,20.0,-999,-99.99,,,-99.99,,2013-01-12 18:53:00,
2013-01-12 10:03:00,-999.0,-99.9,30.00,ENE,66,14.0,17.0,-999,-99.99,,,-99.99,,2013-01-12 19:03:00,
2013-01-12 10:12:00,31.0,-99.9,30.00,ENE,63,13.0,17.0,-999,-99.99,,,-99.99,,2013-01-12 19:12:00,
2013-01-12 10:23:00,-999.0,-99.9,30.00,ENE,65,13.0,17.0,-999,-99.99,,,-99.99,,2013-01-12 19:23:00,
2013-01-12 10:33:00,-999.0,-99.9,29.99,ENE,64,13.0,15.0,-999,-99.99,,,-99.99,,2013-01-12 19:33:00,
2013-01-12 10:43:00,-999.0,-99.9,29.99,ENE,68,10.0,14.0,-999,-99.99,,,-99.99,,2013-01-12 19:43:00,
2013-01-12 10:53:00,-999.0,-99.9,29.99,ENE,67,11.0,13.0,-999,-99.99,,,-99.99,,2013-01-12 19:53:00,
2013-01-12 11:03:00,-999.0,-99.9,29.99,ENE,62,11.0,13.0,-999,-99.99,,,-99.99,,2013-01-12 20:03:00,
2013-01-12 11:13:00,-999.0,-99.9,30.00,ENE,68,8.0,12.0,-999,-99.99,,,-99.99,,2013-01-12 20:13:00,
2013-01-12 11:22:00,-999.0,-99.9,30.00,ENE,70,8.0,10.0,-999,-99.99,,,-99.99,,2013-01-12 20:22:00,
2013-01-12 11:33:00,32.0,-99.9,29.99,ENE,69,9.0,12.0,-999,-99.99,,,-99.99,,2013-01-12 20:33:00,
2013-01-12 11:43:00,33.0,-99.9,29.98,ENE,68,11.0,14.0,-999,-99.99,,,-99.99,,2013-01-12 20:43:00,
2013-01-12 11:53:00,33.0,-99.9,29.98,ENE,71,11.0,15.0,-999,-99.99,,,-99.99,,2013-01-12 20:53:00,
2013-01-12 12:03:00,33.0,-99.9,29.98,ENE,61,12.0,14.0,-999,-99.99,,,-99.99,,2013-01-12 21:03:00,
2013-01-12 12:12:00,33.0,-99.9,29.98,ENE,65,11.0,14.0,-999,-99.99,,,-99.99,,2013-01-12 21:12:00,
2013-01-12 12:22:00,33.0,-99.9,29.98,ENE,68,11.0,15.0,-999,-99.99,,,-99.99,,2013-01-12 21:22:00,
2013-01-12 12:33:00,33.0,-99.9,29.98,ENE,74,13.0,15.0,-999,-99.99,,,-99.99,,2013-01-12 21:33:00,
2013-01-12 12:43:00,33.0,-99.9,29.98,ENE,73,11.0,15.0,-999,-99.99,,,-99.99,,2013-01-12 21:43:00,
2013-01-12 12:53:00,33.0,-99.9,29.98,ENE,72,12.0,16.0,-999,-99.99,,,-99.99,,2013-01-12 21:53:00,
2013-01-12 13:03:00,33.0,-99.9,29.98,ENE,76,11.0,14.0,-999,-99.99,,,-99.99,,2013-01-12 22:03:00,
2013-01-12 13:12:00,34.0,-99.9,29.97,East,81,9.0,14.0,-999,-99.99,,,-99.99,,2013-01-12 22:12:00,
2013-01-12 13:23:00,34.0,-99.9,29.97,East,79,9.0,14.0,-999,-99.99,,,-99.99,,2013-01-12 22:23:00,
2013-01-12 13:33:00,35.0,-99.9,29.96,East,81,11.0,15.0,-999,-99.99,,,-99.99,,2013-01-12 22:33:00,
2013-01-12 13:44:00,34.0,-99.9,29.97,East,86,9.0,12.0,-999,-99.99,,,-99.99,,2013-01-12 22:44:00,
2013-01-12 13:53:00,34.0,-99.9,29.97,East,99,6.0,11.0,-999,-99.99,,,-99.99,,2013-01-12 22:53:00,
2013-01-12 14:03:00,34.0,-99.9,29.97,East,97,4.0,10.0,-999,-99.99,,,-99.99,,2013-01-12 23:03:00,
2013-01-12 14:13:00,34.0,-99.9,29.96,ENE,76,6.0,8.0,-999,-99.99,,,-99.99,,2013-01-12 23:13:00,
2013-01-12 14:23:00,34.0,-99.9,29.96,ENE,64,4.0,8.0,-999,-99.99,,,-99.99,,2013-01-12 23:23:00,
2013-01-12 14:33:00,34.0,-99.9,29.96,ENE,58,9.0,10.0,-999,-99.99,,,-99.99,,2013-01-12 23:33:00,
2013-01-12 14:43:00,34.0,-99.9,29.95,NE,53,7.0,9.0,-999,-99.99,,,-99.99,,2013-01-12 23:43:00,
2013-01-12 14:53:00,34.0,-99.9,29.95,NE,55,7.0,8.0,-999,-99.99,,,-99.99,,2013-01-12 23:53:00,
2013-01-12 15:03:00,34.0,-99.9,29.95,NE,51,7.0,8.0,-999,-99.99,,,-99.99,,2013-01-13 00:03:00,
2013-01-12 15:12:00,34.0,-99.9,29.94,NE,48,6.0,8.0,-999,-99.99,,,-99.99,,2013-01-13 00:12:00,
2013-01-12 15:23:00,34.0,-99.9,29.94,NE,53,6.0,8.0,-999,-99.99,,,-99.99,,2013-01-13 00:23:00,
2013-01-12 15:33:00,33.0,-99.9,29.93,NE,46,5.0,7.0,-999,-99.99,,,-99.99,,2013-01-13 00:33:00,
2013-01-12 15:43:00,34.0,-99.9,29.93,NE,54,7.0,9.0,-999,-99.99,,,-99.99,,2013-01-13 00:43:00,
2013-01-12 15:53:00,34.0,-99.9,29.93,NE,51,7.0,9.0,-999,-99.99,,,-99.99,,2013-01-13 00:53:00,
2013-01-12 16:03:00,34.0,-99.9,29.93,NE,53,7.0,9.0,-999,-99.99,,,-99.99,,2013-01-13 01:03:00,
2013-01-12 16:12:00,34.0,-99.9,29.92,ENE,58,7.0,9.0,-999,-99.99,,,-99.99,,2013-01-13 01:12:00,
2013-01-12 16:23:00,34.0,-99.9,29.92,NE,56,8.0,10.0,-999,-99.99,,,-99.99,,2013-01-13 01:23:00,
2013-01-12 16:33:00,34.0,-99.9,29.91,ENE,59,9.0,12.0,-999,-99.99,,,-99.99,,2013-01-13 01:33:00,
2013-01-12 16:43:00,34.0,-99.9,29.91,NE,54,9.0,11.0,-999,-99.99,,,-99.99,,2013-01-13 01:43:00,
2013-01-12 16:53:00,34.0,-99.9,29.91,NE,52,9.0,10.0,-999,-99.99,,,-99.99,,2013-01-13 01:53:00,
2013-01-12 17:03:00,34.0,-99.9,29.90,NE,51,10.0,13.0,-999,-99.99,,,-99.99,,2013-01-13 02:03:00,
2013-01-12 17:13:00,34.0,-99.9,29.90,NE,54,9.0,14.0,-999,-99.99,,,-99.99,,2013-01-13 02:13:00,
2013-01-12 17:23:00,34.0,-99.9,29.90,NE,51,9.0,11.0,-999,-99.99,,,-99.99,,2013-01-13 02:23:00,
2013-01-12 17:33:00,34.0,-99.9,29.90,NE,53,11.0,14.0,-999,-99.99,,,-99.99,,2013-01-13 02:33:00,
2013-01-12 17:43:00,34.0,-99.9,29.90,NE,53,11.0,15.0,-999,-99.99,,,-99.99,,2013-01-13 02:43:00,
2013-01-12 17:53:00,33.0,-99.9,29.89,NE,55,10.0,16.0,-999,-99.99,,,-99.99,,2013-01-13 02:53:00,
2013-01-12 18:03:00,34.0,-99.9,29.89,NE,46,12.0,16.0,-999,-99.99,,,-99.99,,2013-01-13 03:03:00,
2013-01-12 18:12:00,34.0,-99.9,29.89,NE,43,13.0,19.0,-999,-99.99,,,-99.99,,2013-01-13 03:12:00,
2013-01-12 18:22:00,33.0,-99.9,29.89,NE,43,12.0,15.0,-999,-99.99,,,-99.99,,2013-01-13 03:22:00,
2013-01-12 18:33:00,33.0,-99.9,29.89,NE,46,12.0,15.0,-999,-99.99,,,-99.99,,2013-01-13 03:33:00,
2013-01-12 18:43:00,33.0,-99.9,29.89,NE,47,12.0,16.0,-999,-99.99,,,-99.99,,2013-01-13 03:43:00,
2013-01-12 18:53:00,33.0,-99.9,29.89,NE,43,12.0,16.0,-999,-99.99,,,-99.99,,2013-01-13 03:53:00,
2013-01-12 19:03:00,33.0,-99.9,29.88,NE,48,13.0,16.0,-999,-99.99,,,-99.99,,2013-01-13 04:03:00,
2013-01-12 19:12:00,33.0,-99.9,29.89,NE,39,13.0,16.0,-999,-99.99,,,-99.99,,2013-01-13 04:12:00,
2013-01-12 19:22:00,33.0,-99.9,29.89,NE,42,12.0,15.0,-999,-99.99,,,-99.99,,2013-01-13 04:22:00,
2013-01-12 19:33:00,33.0,-99.9,29.89,NE,46,9.0,11.0,-999,-99.99,,,-99.99,,2013-01-13 04:33:00,
2013-01-12 19:43:00,33.0,-99.9,29.89,NE,46,8.0,13.0,-999,-99.99,,,-99.99,,2013-01-13 04:43:00,
2013-01-12 19:53:00,33.0,-99.9,29.89,NE,40,12.0,15.0,-999,-99.99,,,-99.99,,2013-01-13 04:53:00,
2013-01-12 20:03:00,33.0,-99.9,29.89,NE,45,9.0,13.0,-999,-99.99,,,-99.99,,2013-01-13 05:03:00,
2013-01-12 20:12:00,33.0,-99.9,29.88,NE,55,11.0,13.0,-999,-99.99,,,-99.99,,2013-01-13 05:12:00,
2013-01-12 20:23:00,34.0,-99.9,29.88,NE,55,13.0,15.0,-999,-99.99,,,-99.99,,2013-01-13 05:23:00,
2013-01-12 20:33:00,34.0,-99.9,29.88,NE,55,13.0,16.0,-999,-99.99,,,-99.99,,2013-01-13 05:33:00,
2013-01-12 20:42:00,34.0,-99.9,29.87,ENE,58,10.0,16.0,-999,-99.99,,,-99.99,,2013-01-13 05:42:00,
2013-01-12 20:53:00,35.0,-99.9,29.87,ENE,62,11.0,13.0,-999,-99.99,,,-99.99,,2013-01-13 05:53:00,
2013-01-12 21:03:00,35.0,-99.9,29.87,ENE,61,15.0,18.0,-999,-99.99,,,-99.99,,2013-01-13 06:03:00,
2013-01-12 21:12:00,35.0,-99.9,29.88,ENE,71,12.0,15.0,-999,-99.99,,,-99.99,,2013-01-13 06:12:00,
2013-01-12 21:22:00,35.0,-99.9,29.88,ENE,69,12.0,16.0,-999,-99.99,,,-99.99,,2013-01-13 06:22:00,
2013-01-12 21:33:00,35.0,-99.9,29.88,ENE,73,11.0,15.0,-999,-99.99,,,-99.99,,2013-01-13 06:33:00,
2013-01-12 21:43:00,35.0,-99.9,29.88,ENE,71,11.0,15.0,-999,-99.99,,,-99.99,,2013-01-13 06:43:00,
2013-01-12 21:52:00,35.0,-99.9,29.87,ENE,76,11.0,14.0,-999,-99.99,,,-99.99,,2013-01-13 06:52:00,
2013-01-12 22:02:00,36.0,-99.9,29.86,East,81,11.0,14.0,-999,-99.99,,,-99.99,,2013-01-13 07:02:00,
2013-01-12 22:12:00,36.0,-99.9,29.85,ENE,75,12.0,14.0,-999,-99.99,,,-99.99,,2013-01-13 07:12:00,
2013-01-12 22:22:00,36.0,-99.9,29.86,ENE,72,11.0,13.0,-999,-99.99,,,-99.99,,2013-01-13 07:22:00,
2013-01-12 22:33:00,37.0,-99.9,29.86,ENE,69,13.0,15.0,-999,-99.99,,,-99.99,,2013-01-13 07:33:00,
2013-01-12 22:42:00,37.0,-99.9,29.85,ENE,65,12.0,14.0,-999,-99.99,,,-99.99,,2013-01-13 07:42:00,
2013-01-12 22:53:00,37.0,-99.9,29.86,ENE,65,11.0,13.0,-999,-99.99,,,-99.99,,2013-01-13 07:53:00,
2013-01-12 23:02:00,37.0,-99.9,29.85,ENE,58,15.0,18.0,-999,-99.99,,,-99.99,,2013-01-13 08:02:00,
2013-01-12 23:12:00,36.0,-99.9,29.84,NE,55,15.0,19.0,-999,-99.99,,,-99.99,,2013-01-13 08:12:00,
2013-01-12 23:22:00,36.0,-99.9,29.84,NE,55,15.0,21.0,-999,-99.99,,,-99.99,,2013-01-13 08:22:00,
2013-01-12 23:32:00,36.0,-99.9,29.83,NE,56,17.0,21.0,-999,-99.99,,,-99.99,,2013-01-13 08:32:00,
2013-01-12 23:42:00,36.0,-99.9,29.83,NE,52,17.0,22.0,-999,-99.99,,,-99.99,,2013-01-13 08:42:00,
2013-01-12 23:53:00,36.0,-99.9,29.83,NE,48,16.0,21.0,-999,-99.99,,,-99.99,,2013-01-13 08:53:00,